Time;durP1;ratioP1;P1;durP2;ratioP2;P2;SDS_P1;SDS_P2;PMS_P1;PMS_P2;Temp;Humidity;BMP_temperature;BMP_pressure;BME280_temperature;BME280_humidity;BME280_pressure;Samples;Min_cycle;Max_cycle;Signal;HPM_P1;HPM_P2
2021/04/27 00:00:14;;;;;;;;;;;;;;;15.99;55.18;100289.47;4992180;28;19917;-79
2021/04/27 00:02:59;;;;;;;;;;;;;;;15.66;55.49;100280.94;4987618;28;19919;-79
2021/04/27 00:05:44;;;;;;;;;;;;;;;15.49;55.56;100289.56;5005623;28;19913;-79
2021/04/27 00:08:29;;;;;;;;;;;;;;;15.45;55.72;100286.72;4975840;28;20310;-78
2021/04/27 00:11:14;;;;;;;;;;;;;;;15.24;56.14;100280.78;4994335;28;19918;-79
2021/04/27 00:13:59;;;;;;;;;;;;;;;15.39;57.05;100286.22;4980579;28;20390;-79
2021/04/27 00:16:44;;;;;;;;;;;;;;;15.57;56.75;100278.44;5004556;28;19914;-77
2021/04/27 00:19:29;;;;;;;;;;;;;;;15.64;56.35;100277.78;4974634;28;20282;-79
2021/04/27 00:22:14;;;;;;;;;;;;;;;16.16;56.86;100266.28;4993700;28;19918;-80
2021/04/27 00:24:58;;;;;;;;;;;;;;;16.52;55.41;100268.50;4977339;28;20303;-80
2021/04/27 00:27:54;;;;;;;;;;;;;;;16.44;53.68;100260.53;4979202;28;19925;-79
2021/04/27 00:30:39;;;;;;;;;;;;;;;16.14;53.95;100249.41;4989697;28;19914;-78
2021/04/27 00:33:24;;;;;;;;;;;;;;;16.11;55.29;100252.84;4978871;28;20297;-77
2021/04/27 00:36:10;;;;;;;;;;;;;;;16.03;54.77;100238.22;4989368;28;19918;-78
2021/04/27 00:38:54;;;;;;;;;;;;;;;16.42;55.51;100246.34;4992375;28;20293;-77
2021/04/27 00:41:39;;;;;;;;;;;;;;;16.74;54.09;100246.94;4990884;28;19913;-79
2021/04/27 00:44:23;;;;;;;;;;;;;;;16.71;53.89;100247.69;4986561;28;19914;-78
2021/04/27 00:47:08;;;;;;;;;;;;;;;16.34;53.36;100248.19;4981168;28;19914;-80
2021/04/27 00:49:53;;;;;;;;;;;;;;;15.96;54.18;100243.56;4977171;28;19917;-80
2021/04/27 00:52:39;;;;;;;;;;;;;;;15.44;54.92;100246.00;4978411;28;19913;-80
2021/04/27 00:55:24;;;;;;;;;;;;;;;15.48;56.27;100246.88;4995011;28;19913;-79
2021/04/27 00:58:09;;;;;;;;;;;;;;;15.81;55.39;100245.25;4974995;28;20347;-78
2021/04/27 01:00:54;;;;;;;;;;;;;;;15.43;55.46;100245.22;4974582;28;20386;-80
2021/04/27 01:03:39;;;;;;;;;;;;;;;15.52;55.07;100242.28;4993950;28;19913;-79
2021/04/27 01:06:24;;;;;;;;;;;;;;;15.27;55.76;100237.03;4991217;28;19913;-79
2021/04/27 01:09:29;;;;;;;;;;;;;;;15.32;55.61;100236.75;4991594;28;19918;-79
2021/04/27 01:12:22;;;;;;;;;;;;;;;15.43;55.76;100228.78;4985766;28;19913;-79
2021/04/27 01:15:21;;;;;;;;;;;;;;;15.45;55.38;100226.44;4988876;28;20437;-78
2021/04/27 01:18:07;;;;;;;;;;;;;;;15.38;55.71;100220.84;4990473;28;19917;-78
2021/04/27 01:20:53;;;;;;;;;;;;;;;15.46;55.93;100216.28;4994323;28;20405;-78
2021/04/27 01:23:46;;;;;;;;;;;;;;;15.24;56.21;100215.81;4988452;28;20389;-78
2021/04/27 01:26:49;;;;;;;;;;;;;;;15.14;57.53;100223.81;4994699;28;19913;-78
2021/04/27 01:29:35;;;;;;;;;;;;;;;15.30;56.63;100214.41;4990549;28;19917;-80
2021/04/27 01:32:21;;;;;;;;;;;;;;;14.96;57.53;100210.53;4985248;28;20377;-76
2021/04/27 01:35:09;;;;;;;;;;;;;;;14.81;58.33;100213.28;4975684;28;19913;-78
2021/04/27 01:38:10;;;;;;;;;;;;;;;14.95;59.00;100214.41;4971487;28;19922;-77
2021/04/27 01:40:56;;;;;;;;;;;;;;;14.95;58.30;100197.19;4974266;28;19913;-79
2021/04/27 01:43:42;;;;;;;;;;;;;;;14.97;58.71;100194.91;4975911;28;19913;-79
2021/04/27 01:46:27;;;;;;;;;;;;;;;15.10;58.48;100195.56;4976441;28;19913;-78
2021/04/27 01:49:15;;;;;;;;;;;;;;;15.08;58.93;100195.94;4989759;28;19921;-78
2021/04/27 01:52:20;;;;;;;;;;;;;;;15.11;59.71;100195.22;5007896;28;19915;-78
2021/04/27 01:55:10;;;;;;;;;;;;;;;14.97;60.20;100190.22;5000283;28;19913;-77
2021/04/27 01:57:55;;;;;;;;;;;;;;;15.06;60.15;100181.78;4985221;28;19964;-78
2021/04/27 02:00:40;;;;;;;;;;;;;;;15.02;60.05;100188.34;4975619;28;20309;-80
2021/04/27 02:03:26;;;;;;;;;;;;;;;15.13;60.20;100187.44;4987658;28;19913;-81
2021/04/27 02:06:31;;;;;;;;;;;;;;;15.11;60.49;100177.97;4978605;28;20406;-79
2021/04/27 02:09:21;;;;;;;;;;;;;;;15.06;61.38;100173.56;4974326;28;19917;-78
2021/04/27 02:12:14;;;;;;;;;;;;;;;15.06;60.92;100170.03;4979616;28;19918;-77
2021/04/27 02:15:02;;;;;;;;;;;;;;;15.10;60.46;100168.97;4982428;28;19914;-78
2021/04/27 02:17:57;;;;;;;;;;;;;;;14.99;61.17;100162.47;5001844;28;20386;-79
2021/04/27 02:20:43;;;;;;;;;;;;;;;15.08;61.34;100168.56;4977122;28;19917;-79
2021/04/27 02:23:54;;;;;;;;;;;;;;;15.20;60.42;100157.44;5001475;28;19929;-78
2021/04/27 02:26:41;;;;;;;;;;;;;;;15.02;61.36;100156.28;4974138;28;19913;-77
2021/04/27 02:29:36;;;;;;;;;;;;;;;15.03;60.24;100159.81;4979444;28;19917;-77
2021/04/27 02:32:21;;;;;;;;;;;;;;;15.06;60.22;100154.41;4988511;28;19914;-78
2021/04/27 02:35:09;;;;;;;;;;;;;;;15.10;60.55;100147.06;4970353;28;19921;-78
2021/04/27 02:37:53;;;;;;;;;;;;;;;15.16;60.56;100142.88;4974324;28;20301;-77
2021/04/27 02:40:57;;;;;;;;;;;;;;;15.12;60.82;100142.03;4975864;28;19914;-78
2021/04/27 02:43:43;;;;;;;;;;;;;;;15.06;60.94;100142.66;4976513;28;19917;-77
2021/04/27 02:46:28;;;;;;;;;;;;;;;15.07;60.62;100136.84;4985471;28;20305;-78
2021/04/27 02:49:16;;;;;;;;;;;;;;;15.10;60.51;100135.31;4994006;28;19926;-76
2021/04/27 02:52:10;;;;;;;;;;;;;;;15.22;60.02;100138.72;4977363;28;20320;-81
2021/04/27 02:55:07;;;;;;;;;;;;;;;15.29;59.85;100136.09;4990417;28;20390;-76
2021/04/27 02:57:53;;;;;;;;;;;;;;;15.23;60.43;100137.56;4973873;28;19913;-76
2021/04/27 03:00:39;;;;;;;;;;;;;;;15.29;59.84;100130.63;4993854;28;19913;-76
2021/04/27 03:03:30;;;;;;;;;;;;;;;15.31;59.56;100133.81;4976958;28;19914;-76
2021/04/27 03:06:15;;;;;;;;;;;;;;;15.34;58.79;100127.59;4969877;28;20527;-76
2021/04/27 03:09:17;;;;;;;;;;;;;;;15.34;59.05;100127.59;4974881;28;20301;-76
2021/04/27 03:12:05;;;;;;;;;;;;;;;15.38;59.44;100128.47;4991972;28;19914;-74
2021/04/27 03:14:55;;;;;;;;;;;;;;;15.50;59.12;100121.22;4967242;28;19914;-74
2021/04/27 03:17:45;;;;;;;;;;;;;;;15.33;59.72;100117.81;4950312;28;19914;-74
2021/04/27 03:20:31;;;;;;;;;;;;;;;15.36;59.18;100117.06;4963362;28;19914;-75
2021/04/27 03:23:32;;;;;;;;;;;;;;;15.28;59.61;100120.84;4978873;28;19918;-75
2021/04/27 03:26:17;;;;;;;;;;;;;;;14.92;61.03;100110.31;4981274;28;19913;-74
2021/04/27 03:29:22;;;;;;;;;;;;;;;14.45;62.05;100108.47;4982083;28;19918;-75
2021/04/27 03:32:15;;;;;;;;;;;;;;;14.61;62.01;100102.97;4966474;28;20289;-74
2021/04/27 03:34:59;;;;;;;;;;;;;;;14.80;61.27;100113.16;4979303;28;20496;-74
2021/04/27 03:37:44;;;;;;;;;;;;;;;14.91;60.52;100109.50;4962960;28;19914;-75
2021/04/27 03:40:30;;;;;;;;;;;;;;;15.07;59.65;100111.38;4978702;28;19914;-76
2021/04/27 03:43:15;;;;;;;;;;;;;;;15.22;59.68;100113.25;4977988;28;19914;-73
2021/04/27 03:46:02;;;;;;;;;;;;;;;15.33;59.17;100109.59;4972802;28;19917;-76
2021/04/27 03:48:47;;;;;;;;;;;;;;;15.21;59.39;100104.25;4976314;28;19918;-76
2021/04/27 03:51:33;;;;;;;;;;;;;;;15.40;58.67;100109.72;4950114;28;19918;-74
2021/04/27 03:54:23;;;;;;;;;;;;;;;15.33;59.12;100104.13;4973090;28;19914;-74
2021/04/27 03:57:08;;;;;;;;;;;;;;;15.38;58.81;100114.78;4978093;28;19914;-74
2021/04/27 04:00:06;;;;;;;;;;;;;;;15.30;58.75;100115.78;4962699;28;19918;-74
2021/04/27 04:02:59;;;;;;;;;;;;;;;15.08;59.55;100113.78;4962777;28;19914;-76
2021/04/27 04:05:44;;;;;;;;;;;;;;;14.91;60.21;100117.72;4971002;28;19914;-74
2021/04/27 04:08:41;;;;;;;;;;;;;;;14.71;60.87;100113.38;4961596;28;20382;-74
2021/04/27 04:11:26;;;;;;;;;;;;;;;14.66;62.06;100118.31;4964695;28;19913;-75
2021/04/27 04:14:10;;;;;;;;;;;;;;;14.55;62.54;100107.13;4963611;28;19914;-74
2021/04/27 04:17:18;;;;;;;;;;;;;;;14.45;62.98;100119.44;4975963;28;19914;-75
2021/04/27 04:20:12;;;;;;;;;;;;;;;14.48;62.29;100113.22;4951168;28;19914;-75
2021/04/27 04:23:02;;;;;;;;;;;;;;;14.69;61.34;100110.19;4952407;28;19913;-74
2021/04/27 04:25:47;;;;;;;;;;;;;;;14.56;62.47;100108.72;4992048;28;20302;-75
2021/04/27 04:28:32;;;;;;;;;;;;;;;14.58;61.40;100116.59;4950676;28;19922;-74
2021/04/27 04:31:18;;;;;;;;;;;;;;;14.53;61.85;100120.38;4975020;28;19914;-75
2021/04/27 04:34:21;;;;;;;;;;;;;;;14.45;61.75;100113.94;4963577;28;19914;-74
2021/04/27 04:37:25;;;;;;;;;;;;;;;14.27;61.74;100118.19;4990533;28;20290;-72
2021/04/27 04:40:28;;;;;;;;;;;;;;;13.45;64.18;100117.25;4994237;28;19913;-71
2021/04/27 04:43:32;;;;;;;;;;;;;;;12.61;68.12;100119.84;4977891;28;19914;-72
2021/04/27 04:46:35;;;;;;;;;;;;;;;12.90;65.70;100126.16;4978363;28;20275;-71
2021/04/27 04:49:46;;;;;;;;;;;;;;;12.73;67.49;100127.22;4965479;28;19917;-71
2021/04/27 04:52:49;;;;;;;;;;;;;;;12.61;68.48;100127.22;4990037;28;19914;-72
2021/04/27 04:55:34;;;;;;;;;;;;;;;13.00;67.07;100125.69;4975384;28;19914;-71
2021/04/27 04:58:42;;;;;;;;;;;;;;;12.74;67.72;100135.06;4974171;28;19918;-71
2021/04/27 05:01:28;;;;;;;;;;;;;;;12.57;69.17;100129.84;4992660;28;19936;-71
2021/04/27 05:04:48;;;;;;;;;;;;;;;12.94;67.80;100124.34;4933164;29;19919;-72
2021/04/27 05:11:24;;;;;;;;;;;;;;;13.45;65.33;100126.22;4929775;28;19922;-71
2021/04/27 05:14:13;;;;;;;;;;;;;;;13.46;65.77;100132.50;4963398;28;19918;-71
2021/04/27 05:16:59;;;;;;;;;;;;;;;13.68;64.66;100124.50;4964486;28;19914;-71
2021/04/27 05:19:44;;;;;;;;;;;;;;;13.87;63.88;100121.06;4974597;28;19918;-71
2021/04/27 05:22:29;;;;;;;;;;;;;;;14.02;62.79;100124.97;4963434;28;19914;-73
2021/04/27 05:25:14;;;;;;;;;;;;;;;14.12;61.99;100132.63;4985879;28;19917;-76
2021/04/27 05:28:09;;;;;;;;;;;;;;;14.22;62.59;100132.09;4973926;28;19914;-72
2021/04/27 05:30:53;;;;;;;;;;;;;;;13.77;62.07;100123.53;4976556;28;19918;-72
2021/04/27 05:33:38;;;;;;;;;;;;;;;13.80;62.77;100125.59;4962542;28;19913;-72
2021/04/27 05:36:22;;;;;;;;;;;;;;;14.17;61.65;100129.63;4977913;28;19917;-75
2021/04/27 05:39:07;;;;;;;;;;;;;;;14.29;59.15;100124.09;4978435;28;19914;-75
2021/04/27 05:41:52;;;;;;;;;;;;;;;14.19;60.28;100132.03;4992057;28;20381;-75
2021/04/27 05:44:36;;;;;;;;;;;;;;;14.38;59.73;100129.38;4959366;28;19914;-75
2021/04/27 05:47:21;;;;;;;;;;;;;;;14.45;59.74;100135.84;4996900;23;19914;-77
2021/04/27 05:50:06;;;;;;;;;;;;;;;14.22;59.47;100137.56;4907805;29;19923;-78
2021/04/27 05:52:50;;;;;;;;;;;;;;;14.12;59.95;100135.38;4935840;29;19919;-78
2021/04/27 05:55:35;;;;;;;;;;;;;;;14.16;60.18;100130.81;4921684;29;19915;-78
2021/04/27 05:58:20;;;;;;;;;;;;;;;14.12;59.94;100132.63;4905799;29;19915;-78
2021/04/27 06:01:05;;;;;;;;;;;;;;;14.16;59.71;100128.06;4915753;29;19915;-78
2021/04/27 06:03:51;;;;;;;;;;;;;;;14.40;59.25;100127.91;4917472;29;20511;-78
2021/04/27 06:06:36;;;;;;;;;;;;;;;14.60;58.88;100119.75;4915777;29;19915;-78
2021/04/27 06:09:21;;;;;;;;;;;;;;;14.59;58.79;100118.16;4916531;29;19922;-78
2021/04/27 06:12:06;;;;;;;;;;;;;;;14.51;58.75;100122.69;4915649;29;20296;-78
2021/04/27 06:14:51;;;;;;;;;;;;;;;14.37;59.26;100125.09;4917144;29;19923;-78
2021/04/27 06:17:36;;;;;;;;;;;;;;;14.47;59.62;100128.09;4917508;29;19915;-78
2021/04/27 06:20:21;;;;;;;;;;;;;;;14.47;59.55;100121.81;4916886;29;20119;-79
2021/04/27 06:23:06;;;;;;;;;;;;;;;14.50;59.27;100124.63;4917540;29;19915;-78
2021/04/27 06:25:51;;;;;;;;;;;;;;;14.31;58.72;100118.28;4916626;29;19923;-77
2021/04/27 06:28:35;;;;;;;;;;;;;;;14.31;60.10;100126.47;4915972;29;19914;-78
2021/04/27 06:31:20;;;;;;;;;;;;;;;14.27;60.04;100123.66;4915327;29;19915;-78
2021/04/27 06:34:06;;;;;;;;;;;;;;;14.28;60.20;100129.91;4915754;29;19915;-78
2021/04/27 06:36:50;;;;;;;;;;;;;;;14.04;59.70;100137.16;4916376;29;19915;-78
2021/04/27 06:39:35;;;;;;;;;;;;;;;13.91;59.82;100121.97;4915254;29;19915;-78
2021/04/27 06:42:19;;;;;;;;;;;;;;;13.95;59.73;100122.06;4915984;29;19915;-77
2021/04/27 06:45:05;;;;;;;;;;;;;;;14.04;59.54;100126.22;4916644;29;19915;-78
2021/04/27 06:47:49;;;;;;;;;;;;;;;14.10;59.54;100127.53;4916166;29;19915;-78
2021/04/27 06:50:35;;;;;;;;;;;;;;;14.30;58.71;100125.69;4914931;29;20208;-78
2021/04/27 06:53:20;;;;;;;;;;;;;;;14.44;57.94;100126.03;4915622;29;19915;-78
2021/04/27 06:56:05;;;;;;;;;;;;;;;14.58;57.61;100124.81;4916656;29;19915;-78
2021/04/27 06:58:49;;;;;;;;;;;;;;;14.71;58.89;100121.56;4904039;29;19915;-78
2021/04/27 07:01:35;;;;;;;;;;;;;;;14.97;59.71;100119.03;4915115;29;19915;-77
2021/04/27 07:04:19;;;;;;;;;;;;;;;15.09;58.01;100120.81;4915736;29;20364;-78
2021/04/27 07:07:04;;;;;;;;;;;;;;;15.11;57.85;100120.47;4915134;29;19915;-78
2021/04/27 07:09:49;;;;;;;;;;;;;;;14.82;58.54;100124.56;4892590;29;19919;-78
2021/04/27 07:12:34;;;;;;;;;;;;;;;15.14;58.57;100127.94;4903906;29;19915;-78
2021/04/27 07:15:18;;;;;;;;;;;;;;;15.23;57.48;100120.34;4914829;29;19919;-78
2021/04/27 07:18:03;;;;;;;;;;;;;;;15.63;57.14;100117.22;4918584;29;20295;-78
2021/04/27 07:20:48;;;;;;;;;;;;;;;15.74;56.34;100123.69;4915887;29;19915;-78
2021/04/27 07:23:33;;;;;;;;;;;;;;;15.54;57.69;100122.16;4914655;29;20388;-78
2021/04/27 07:26:17;;;;;;;;;;;;;;;15.66;57.67;100124.72;4915056;29;19915;-78
2021/04/27 07:29:02;;;;;;;;;;;;;;;15.91;56.86;100122.41;4903099;29;19919;-78
2021/04/27 07:31:48;;;;;;;;;;;;;;;15.84;55.80;100120.34;4915291;29;19914;-78
2021/04/27 07:34:33;;;;;;;;;;;;;;;16.07;55.06;100125.81;4916016;29;19914;-78
2021/04/27 07:37:18;;;;;;;;;;;;;;;16.17;55.07;100117.78;4915432;29;19915;-78
2021/04/27 07:40:03;;;;;;;;;;;;;;;16.32;53.99;100121.53;4915596;29;19915;-78
2021/04/27 07:42:48;;;;;;;;;;;;;;;16.38;52.58;100119.28;4919170;29;20376;-78
2021/04/27 07:45:33;;;;;;;;;;;;;;;16.29;54.03;100121.50;4916316;29;19915;-78
2021/04/27 07:48:18;;;;;;;;;;;;;;;16.63;53.48;100120.47;4918347;29;19914;-78
2021/04/27 07:51:03;;;;;;;;;;;;;;;16.69;53.18;100124.50;4909496;29;19919;-78
2021/04/27 07:53:48;;;;;;;;;;;;;;;17.08;52.02;100120.31;4918364;29;20284;-79
2021/04/27 07:56:34;;;;;;;;;;;;;;;17.18;52.07;100118.84;4919352;29;19915;-79
2021/04/27 07:59:19;;;;;;;;;;;;;;;16.86;52.89;100117.66;4919044;29;19914;-78
2021/04/27 08:02:04;;;;;;;;;;;;;;;17.34;51.94;100121.41;4919372;29;19914;-78
2021/04/27 08:04:49;;;;;;;;;;;;;;;17.79;49.71;100121.13;4918503;29;20291;-79
2021/04/27 08:07:33;;;;;;;;;;;;;;;18.00;50.02;100126.06;4923024;29;19915;-78
2021/04/27 08:10:18;;;;;;;;;;;;;;;18.03;50.24;100114.28;4921082;29;19919;-78
2021/04/27 08:13:03;;;;;;;;;;;;;;;18.64;47.75;100116.34;4920401;29;19919;-78
2021/04/27 08:15:48;;;;;;;;;;;;;;;18.19;47.45;100117.56;4917917;29;19940;-78
2021/04/27 08:18:35;;;;;;;;;;;;;;;17.77;48.79;100119.94;4918901;29;19914;-79
2021/04/27 08:21:20;;;;;;;;;;;;;;;18.03;48.42;100128.03;4919270;29;20295;-78
2021/04/27 08:24:06;;;;;;;;;;;;;;;17.99;48.06;100129.16;4918709;29;19919;-78
2021/04/27 08:26:50;;;;;;;;;;;;;;;18.07;48.94;100125.34;4918488;29;19915;-78
2021/04/27 08:29:35;;;;;;;;;;;;;;;18.35;48.38;100131.84;4918561;29;19919;-79
2021/04/27 08:32:21;;;;;;;;;;;;;;;17.65;49.20;100134.75;4918511;29;19915;-78
2021/04/27 08:35:06;;;;;;;;;;;;;;;17.46;48.79;100135.69;4918354;29;19915;-78
2021/04/27 08:37:52;;;;;;;;;;;;;;;17.20;48.97;100127.53;4919570;29;19919;-78
2021/04/27 08:40:36;;;;;;;;;;;;;;;17.49;49.05;100128.63;4917163;29;19915;-78
2021/04/27 08:43:20;;;;;;;;;;;;;;;17.57;49.02;100133.06;4918427;29;20368;-78
2021/04/27 08:46:05;;;;;;;;;;;;;;;17.51;48.97;100127.13;4906566;29;19915;-78
2021/04/27 08:48:50;;;;;;;;;;;;;;;17.52;49.20;100133.41;4904212;29;19915;-78
2021/04/27 08:51:34;;;;;;;;;;;;;;;17.44;49.13;100131.72;4920059;29;19915;-78
2021/04/27 08:54:19;;;;;;;;;;;;;;;16.94;49.77;100136.59;4919413;29;19915;-78
2021/04/27 08:57:04;;;;;;;;;;;;;;;16.98;50.65;100142.16;4904852;29;19915;-78
2021/04/27 08:59:48;;;;;;;;;;;;;;;16.27;51.82;100138.31;4920787;29;19915;-78
2021/04/27 09:02:34;;;;;;;;;;;;;;;16.37;53.14;100139.63;4918325;29;19915;-79
2021/04/27 09:05:20;;;;;;;;;;;;;;;16.62;51.73;100144.38;4906664;29;20379;-79
2021/04/27 09:08:05;;;;;;;;;;;;;;;16.55;52.49;100137.97;4919162;29;20376;-78
2021/04/27 09:10:49;;;;;;;;;;;;;;;16.29;53.53;100143.44;4907957;29;20391;-78
2021/04/27 09:13:34;;;;;;;;;;;;;;;16.33;52.98;100144.28;4918694;29;19915;-78
2021/04/27 09:16:25;;;;;;;;;;;;;;;16.44;52.63;100142.50;4916808;29;19915;-78
2021/04/27 09:19:10;;;;;;;;;;;;;;;16.45;52.58;100141.34;4919720;29;19915;-80
2021/04/27 09:22:20;;;;;;;;;;;;;;;16.57;52.55;100143.88;4893782;29;19915;-78
2021/04/27 09:25:06;;;;;;;;;;;;;;;16.49;52.38;100142.19;4913173;29;20303;-78
2021/04/27 09:27:52;;;;;;;;;;;;;;;16.82;51.86;100136.03;4923848;29;19919;-79
2021/04/27 09:30:40;;;;;;;;;;;;;;;16.94;49.77;100136.59;4924559;29;19927;-78
2021/04/27 09:33:26;;;;;;;;;;;;;;;16.69;51.70;100143.72;4918584;29;19915;-78
2021/04/27 09:36:16;;;;;;;;;;;;;;;17.09;49.88;100138.38;4908735;29;20317;-79
2021/04/27 09:39:01;;;;;;;;;;;;;;;16.50;52.04;100143.78;4913409;29;19919;-79
2021/04/27 09:41:58;;;;;;;;;;;;;;;16.20;53.56;100138.22;4925568;29;20339;-79
2021/04/27 09:44:43;;;;;;;;;;;;;;;16.17;52.66;100139.72;4939933;29;19915;-79
2021/04/27 09:47:30;;;;;;;;;;;;;;;16.07;52.81;100136.81;4928067;29;19914;-79
2021/04/27 09:50:14;;;;;;;;;;;;;;;16.69;51.42;100135.47;4938383;29;19927;-79
2021/04/27 09:52:59;;;;;;;;;;;;;;;17.28;50.12;100128.38;4937740;29;19915;-79
2021/04/27 09:55:48;;;;;;;;;;;;;;;16.57;51.15;100122.72;4943524;29;19918;-79
2021/04/27 09:58:32;;;;;;;;;;;;;;;16.68;52.02;100129.19;4939406;29;19918;-79
2021/04/27 10:01:19;;;;;;;;;;;;;;;15.43;53.47;100123.84;4925909;29;19915;-79
2021/04/27 10:04:04;;;;;;;;;;;;;;;16.12;53.88;100129.06;4937393;29;19918;-78
2021/04/27 10:06:49;;;;;;;;;;;;;;;16.21;52.99;100132.34;4937918;29;20371;-79
2021/04/27 10:09:35;;;;;;;;;;;;;;;16.24;53.10;100131.63;4937642;29;19919;-79
2021/04/27 10:12:19;;;;;;;;;;;;;;;16.53;53.38;100132.84;4936967;29;19914;-78
2021/04/27 10:15:04;;;;;;;;;;;;;;;16.77;51.78;100120.66;4938083;29;19914;-79
2021/04/27 10:17:49;;;;;;;;;;;;;;;16.50;52.29;100121.81;4940310;29;19915;-79
2021/04/27 10:20:34;;;;;;;;;;;;;;;16.92;51.88;100122.44;4939527;29;19936;-79
2021/04/27 10:23:19;;;;;;;;;;;;;;;16.90;51.47;100122.03;4943197;29;20367;-79
2021/04/27 10:26:04;;;;;;;;;;;;;;;17.13;50.88;100121.13;4924323;29;19915;-79
2021/04/27 10:28:59;;;;;;;;;;;;;;;16.55;51.38;100118.78;4922472;29;19914;-79
2021/04/27 10:31:44;;;;;;;;;;;;;;;16.94;51.46;100113.84;4917790;29;19919;-79
2021/04/27 10:34:29;;;;;;;;;;;;;;;17.27;49.94;100104.84;4927823;29;19915;-79
2021/04/27 10:37:13;;;;;;;;;;;;;;;17.76;49.13;100112.84;4924389;29;19919;-78
2021/04/27 10:39:58;;;;;;;;;;;;;;;17.75;48.71;100103.81;4922946;29;19915;-79
2021/04/27 10:42:43;;;;;;;;;;;;;;;17.78;48.78;100108.53;4925247;29;19915;-79
2021/04/27 10:45:31;;;;;;;;;;;;;;;16.39;50.41;100105.19;4937236;29;19915;-79
2021/04/27 10:48:29;;;;;;;;;;;;;;;16.56;51.71;100101.91;4916930;29;19916;-79
2021/04/27 10:51:20;;;;;;;;;;;;;;;16.33;52.26;100089.41;4925998;29;19923;-79
2021/04/27 10:54:19;;;;;;;;;;;;;;;16.63;52.00;100101.25;4922855;29;19914;-79
2021/04/27 10:57:03;;;;;;;;;;;;;;;16.68;51.65;100095.44;4926599;29;19914;-78
2021/04/27 10:59:56;;;;;;;;;;;;;;;17.24;50.73;100091.84;4909631;29;19915;-79
2021/04/27 11:02:41;;;;;;;;;;;;;;;17.63;49.15;100100.53;4936739;29;19914;-78
2021/04/27 11:05:25;;;;;;;;;;;;;;;16.46;52.59;100093.50;4921532;29;19915;-79
2021/04/27 11:08:11;;;;;;;;;;;;;;;17.30;49.98;100090.34;4937028;29;19915;-79
2021/04/27 11:10:55;;;;;;;;;;;;;;;17.27;49.67;100086.38;4927269;29;19919;-79
2021/04/27 11:13:40;;;;;;;;;;;;;;;17.45;50.08;100095.63;4924835;29;19914;-79
2021/04/27 11:16:27;;;;;;;;;;;;;;;17.93;49.95;100092.97;4920182;29;19922;-79
2021/04/27 11:19:18;;;;;;;;;;;;;;;18.89;46.44;100093.69;4907573;29;19922;-79
2021/04/27 11:22:16;;;;;;;;;;;;;;;18.16;47.33;100084.50;4907624;29;20399;-78
2021/04/27 11:25:05;;;;;;;;;;;;;;;18.68;45.94;100089.63;4921092;29;19915;-79
2021/04/27 11:27:50;;;;;;;;;;;;;;;18.64;45.90;100085.28;4927831;29;19915;-79
2021/04/27 11:30:35;;;;;;;;;;;;;;;18.94;45.22;100085.03;4920347;29;19918;-79
2021/04/27 11:33:25;;;;;;;;;;;;;;;18.86;45.53;100083.41;4930379;29;19915;-78
2021/04/27 11:36:10;;;;;;;;;;;;;;;18.51;47.07;100084.75;4919574;29;19918;-79
2021/04/27 11:38:54;;;;;;;;;;;;;;;17.34;49.23;100077.44;4939459;29;19914;-79
2021/04/27 11:41:58;;;;;;;;;;;;;;;18.31;48.14;100086.19;4939208;29;19915;-78
2021/04/27 11:44:43;;;;;;;;;;;;;;;18.28;46.82;100092.47;4925768;29;19915;-79
2021/04/27 11:47:35;;;;;;;;;;;;;;;17.93;48.25;100080.00;4928878;29;20549;-79
2021/04/27 11:50:21;;;;;;;;;;;;;;;17.41;49.87;100083.00;4932649;29;20221;-79
2021/04/27 11:53:09;;;;;;;;;;;;;;;17.73;47.71;100089.63;4979630;23;19930;-81
2021/04/27 11:55:55;;;;;;;;;;;;;;;17.97;47.71;100080.06;4966576;28;20396;-78
2021/04/27 11:58:42;;;;;;;;;;;;;;;17.84;47.62;100081.50;4952954;28;19918;-80
2021/04/27 12:01:26;;;;;;;;;;;;;;;18.58;45.33;100089.56;4942423;28;19922;-80
2021/04/27 12:04:11;;;;;;;;;;;;;;;17.61;47.19;100084.44;4954289;28;19914;-80
2021/04/27 12:07:00;;;;;;;;;;;;;;;17.89;47.26;100086.63;4957024;28;19914;-80
2021/04/27 12:09:45;;;;;;;;;;;;;;;17.73;48.03;100086.88;4953928;28;19922;-81
2021/04/27 12:12:30;;;;;;;;;;;;;;;17.99;47.73;100091.44;4953684;28;19917;-81
2021/04/27 12:15:14;;;;;;;;;;;;;;;17.68;48.40;100086.44;4957260;28;19918;-79
2021/04/27 12:18:07;;;;;;;;;;;;;;;16.59;50.02;100086.69;4953078;28;20388;-81
2021/04/27 12:20:51;;;;;;;;;;;;;;;16.61;49.86;100081.59;4952060;28;19926;-79
2021/04/27 12:23:36;;;;;;;;;;;;;;;16.35;50.77;100082.41;4956425;28;19914;-80
2021/04/27 12:26:21;;;;;;;;;;;;;;;16.50;50.68;100091.63;4941884;28;20369;-80
2021/04/27 12:29:06;;;;;;;;;;;;;;;16.53;51.11;100077.16;4953397;28;19930;-80
2021/04/27 12:31:51;;;;;;;;;;;;;;;16.51;50.95;100077.53;4952874;28;19922;-80
2021/04/27 12:34:37;;;;;;;;;;;;;;;16.43;51.49;100077.78;4966209;28;19914;-80
2021/04/27 12:37:24;;;;;;;;;;;;;;;16.67;50.81;100088.38;4953166;28;19914;-81
2021/04/27 12:40:17;;;;;;;;;;;;;;;16.29;51.87;100080.34;4956549;28;19913;-80
2021/04/27 12:43:08;;;;;;;;;;;;;;;16.09;52.73;100080.44;4950882;28;19914;-81
2021/04/27 12:45:56;;;;;;;;;;;;;;;16.01;53.10;100075.19;4948588;28;19914;-81
2021/04/27 12:48:42;;;;;;;;;;;;;;;16.17;53.30;100075.84;4946760;28;19914;-80
2021/04/27 12:51:27;;;;;;;;;;;;;;;16.14;52.64;100082.88;4945074;29;19918;-80
2021/04/27 12:54:25;;;;;;;;;;;;;;;16.17;51.71;100079.38;4942929;29;19915;-81
2021/04/27 12:57:17;;;;;;;;;;;;;;;16.24;53.35;100082.25;4947240;29;19918;-80
2021/04/27 13:00:07;;;;;;;;;;;;;;;16.27;53.38;100072.47;4945334;29;19914;-80
2021/04/27 13:02:51;;;;;;;;;;;;;;;15.75;52.53;100071.22;4959108;29;19915;-82
2021/04/27 13:05:36;;;;;;;;;;;;;;;15.72;51.22;100071.97;4937017;28;19914;-80
2021/04/27 13:08:25;;;;;;;;;;;;;;;16.41;48.46;100060.91;4947964;28;19914;-79
2021/04/27 13:11:09;;;;;;;;;;;;;;;16.63;48.36;100062.81;4953287;28;19917;-80
2021/04/27 13:14:14;;;;;;;;;;;;;;;15.86;49.83;100060.44;4951761;28;20301;-80
2021/04/27 13:17:00;;;;;;;;;;;;;;;15.96;49.94;100061.78;4976118;28;19914;-80
2021/04/27 13:19:49;;;;;;;;;;;;;;;16.05;52.40;100067.81;4960494;28;19914;-79
2021/04/27 13:22:33;;;;;;;;;;;;;;;16.10;52.29;100051.81;4951734;28;19914;-80
2021/04/27 13:25:23;;;;;;;;;;;;;;;16.10;50.74;100062.78;4945870;28;19913;-80
2021/04/27 13:28:10;;;;;;;;;;;;;;;16.32;52.34;100050.19;4966053;28;20364;-79
2021/04/27 13:30:56;;;;;;;;;;;;;;;16.25;50.54;100055.59;4963882;28;19918;-80
2021/04/27 13:33:42;;;;;;;;;;;;;;;16.09;49.44;100052.22;4948043;28;19918;-79
2021/04/27 13:36:28;;;;;;;;;;;;;;;16.05;49.47;100054.09;4952146;28;19913;-80
2021/04/27 13:39:12;;;;;;;;;;;;;;;16.03;52.69;100048.97;4978201;28;19914;-80
2021/04/27 13:41:56;;;;;;;;;;;;;;;16.16;53.03;100055.03;4962502;28;19914;-80
2021/04/27 13:44:41;;;;;;;;;;;;;;;16.15;53.31;100057.00;4949396;28;19914;-79
2021/04/27 13:47:26;;;;;;;;;;;;;;;16.14;52.79;100044.47;4967879;28;19914;-80
2021/04/27 13:50:11;;;;;;;;;;;;;;;16.42;52.53;100048.75;4948368;28;19922;-80
2021/04/27 13:52:56;;;;;;;;;;;;;;;16.40;52.92;100045.63;4960944;28;20326;-79
2021/04/27 13:55:41;;;;;;;;;;;;;;;16.36;51.82;100039.25;4955137;28;19914;-81
2021/04/27 13:58:27;;;;;;;;;;;;;;;16.14;52.09;100041.72;4957659;28;19918;-80
2021/04/27 14:01:12;;;;;;;;;;;;;;;16.53;50.83;100034.03;4952324;28;19914;-80
2021/04/27 14:03:57;;;;;;;;;;;;;;;16.53;50.70;100033.25;4950924;28;19914;-80
2021/04/27 14:06:42;;;;;;;;;;;;;;;16.81;50.15;100035.59;4941739;29;19914;-79
2021/04/27 14:09:27;;;;;;;;;;;;;;;16.46;50.43;100038.63;4933295;28;19917;-81
2021/04/27 14:12:12;;;;;;;;;;;;;;;16.39;49.38;100030.31;4930391;29;20377;-82
2021/04/27 14:14:57;;;;;;;;;;;;;;;16.19;49.58;100033.16;4935687;28;19914;-80
2021/04/27 14:17:42;;;;;;;;;;;;;;;16.14;48.51;100030.75;4979553;28;20122;-80
2021/04/27 14:20:29;;;;;;;;;;;;;;;16.08;48.35;100029.47;4972465;28;19914;-80
2021/04/27 14:23:14;;;;;;;;;;;;;;;15.98;47.24;100021.88;4932797;29;19915;-80